Goodyears Corners, New York
Current Conditions -  °F | °C
As of 1:56 PM on Friday 28 Nov 2014 (Local Time) from KITH Reporting Station
Overcast Overcast  
Wind Chill: 12°   Ceiling: 4100
Heat Index: 26°   Visibility: 10mi
Dew Point: 12°   Wind: 20mph
Humidity: 55%   Direction: 280°W
Pressure: 30.18"   Gusts: NA
Location:  42.6734°N, 76.6263°W
Report Text: KITH 281856Z 28017KT 10SM OVC041 M03/M11 A3018 RMK AO2 T10331111 SLP235
Loading
Personal Weather Stations






























Interactive Weather Map New forecast layout! Learn more

10-Day Weather Forecast

Advertisements
Track Severe Weather on mobile